createdAt,value
2022-11-20T00:01:29.598Z,6.43
2022-11-20T00:03:58.627Z,5.50
2022-11-20T00:06:26.140Z,6.17
2022-11-20T00:08:55.173Z,6.23
2022-11-20T00:11:23.234Z,5.87
2022-11-20T00:13:51.678Z,6.17
2022-11-20T00:16:20.093Z,6.43
2022-11-20T00:18:47.537Z,6.23
2022-11-20T00:21:16.091Z,6.07
2022-11-20T00:23:43.579Z,6.30
2022-11-20T00:26:11.891Z,7.03
2022-11-20T00:28:38.948Z,6.83
2022-11-20T00:31:06.970Z,6.80
2022-11-20T00:33:34.087Z,7.17
2022-11-20T00:36:05.320Z,7.90
2022-11-20T00:38:32.835Z,7.67
2022-11-20T00:41:00.991Z,6.77
2022-11-20T00:43:28.697Z,6.47
2022-11-20T00:45:59.774Z,6.93
2022-11-20T00:48:27.273Z,6.13
2022-11-20T00:50:54.859Z,6.60
2022-11-20T00:53:22.497Z,7.20
2022-11-20T00:56:03.108Z,6.73
2022-11-20T00:58:31.411Z,7.80
2022-11-20T01:01:19.447Z,6.50
2022-11-20T01:03:47.913Z,6.57
2022-11-20T01:06:19.106Z,6.50
2022-11-20T01:08:46.532Z,6.30
2022-11-20T01:11:14.885Z,6.53
2022-11-20T01:13:42.317Z,7.23
2022-11-20T01:16:09.423Z,6.97
2022-11-20T01:18:36.778Z,7.93
2022-11-20T01:21:07.532Z,7.53
2022-11-20T01:23:35.369Z,7.23
2022-11-20T01:26:03.525Z,6.57
2022-11-20T01:28:30.979Z,6.57
2022-11-20T01:30:58.204Z,6.70
2022-11-20T01:33:25.289Z,6.50
2022-11-20T01:35:52.344Z,6.53
2022-11-20T01:38:21.006Z,7.33
2022-11-20T01:40:55.486Z,7.10
2022-11-20T01:43:22.982Z,6.30
2022-11-20T01:46:08.509Z,6.43
2022-11-20T01:48:38.609Z,6.20
2022-11-20T01:51:06.411Z,6.63
2022-11-20T01:53:35.036Z,6.57
2022-11-20T01:56:03.071Z,6.17
2022-11-20T01:58:34.970Z,6.10
2022-11-20T02:01:02.232Z,7.00
2022-11-20T02:03:29.860Z,6.53
2022-11-20T02:06:09.191Z,6.70
2022-11-20T02:08:37.001Z,6.80
2022-11-20T02:11:04.083Z,6.80
2022-11-20T02:13:46.519Z,7.03
2022-11-20T02:16:27.360Z,6.57
2022-11-20T02:18:56.343Z,6.30
2022-11-20T02:21:38.603Z,5.63
2022-11-20T02:24:13.050Z,5.37
2022-11-20T02:27:09.241Z,6.13
2022-11-20T02:29:41.278Z,6.60
2022-11-20T02:32:18.891Z,6.90
2022-11-20T02:34:45.947Z,6.33
2022-11-20T02:37:13.270Z,6.23
2022-11-20T02:39:41.259Z,6.00
2022-11-20T02:42:08.309Z,6.30
2022-11-20T02:44:35.351Z,6.03
2022-11-20T02:47:02.415Z,6.60
2022-11-20T02:49:29.503Z,6.20
2022-11-20T02:51:56.577Z,6.70
2022-11-20T02:54:23.693Z,6.77
2022-11-20T02:56:50.792Z,6.27
2022-11-20T02:59:17.923Z,6.40
2022-11-20T03:01:45.104Z,6.83
2022-11-20T03:04:12.218Z,6.67
2022-11-20T03:06:39.260Z,6.20
2022-11-20T03:09:06.337Z,5.50
2022-11-20T03:11:33.437Z,6.80
2022-11-20T03:14:03.229Z,6.20
2022-11-20T03:16:30.263Z,6.07
2022-11-20T03:18:57.276Z,6.57
2022-11-20T03:21:24.356Z,6.03
2022-11-20T03:23:51.411Z,6.20
2022-11-20T03:26:20.026Z,7.57
2022-11-20T03:28:51.142Z,6.00
2022-11-20T03:31:19.283Z,6.53
2022-11-20T03:33:46.426Z,6.53
2022-11-20T03:36:14.539Z,6.30
2022-11-20T03:38:42.069Z,6.60
2022-11-20T03:41:10.489Z,7.00
2022-11-20T03:43:37.620Z,6.60
2022-11-20T03:46:05.119Z,6.13
2022-11-20T03:48:32.227Z,6.47
2022-11-20T03:51:18.719Z,6.73
2022-11-20T03:53:46.345Z,6.30
2022-11-20T03:56:13.962Z,5.93
2022-11-20T03:58:42.058Z,6.20
2022-11-20T04:01:10.185Z,6.83
2022-11-20T04:03:37.995Z,6.10
2022-11-20T04:06:12.778Z,5.83
2022-11-20T04:08:40.245Z,5.87
2022-11-20T04:11:14.551Z,5.87
2022-11-20T04:13:42.085Z,5.67
2022-11-20T04:16:10.055Z,5.87
2022-11-20T04:18:37.436Z,5.97
2022-11-20T04:21:05.210Z,5.93
2022-11-20T04:23:32.275Z,5.57
2022-11-20T04:26:03.289Z,5.50
2022-11-20T04:28:30.353Z,5.93
2022-11-20T04:31:03.053Z,5.50
2022-11-20T04:33:33.991Z,5.50
2022-11-20T04:36:02.863Z,4.80
2022-11-20T04:38:29.964Z,6.50
2022-11-20T04:41:04.182Z,5.87
2022-11-20T04:43:31.679Z,5.40
2022-11-20T04:45:59.576Z,5.13
2022-11-20T04:48:27.252Z,5.70
2022-11-20T04:50:54.947Z,6.07
2022-11-20T04:53:22.679Z,5.80
2022-11-20T04:55:49.754Z,5.80
2022-11-20T04:58:16.981Z,5.50
2022-11-20T05:00:44.119Z,5.23
2022-11-20T05:03:11.157Z,5.87
2022-11-20T05:05:38.182Z,5.53
2022-11-20T05:08:05.396Z,5.50
2022-11-20T05:10:32.452Z,5.63
2022-11-20T05:12:59.477Z,5.23
2022-11-20T05:15:26.585Z,5.23
2022-11-20T05:17:54.086Z,5.13
2022-11-20T05:20:21.143Z,4.73
2022-11-20T05:22:48.199Z,5.77
2022-11-20T05:25:15.335Z,5.03
2022-11-20T05:27:42.397Z,5.47
2022-11-20T05:30:09.868Z,5.17
2022-11-20T05:32:36.923Z,5.37
2022-11-20T05:35:04.058Z,5.47
2022-11-20T05:37:31.082Z,5.17
2022-11-20T05:39:58.141Z,5.63
2022-11-20T05:42:31.266Z,5.20
2022-11-20T05:44:59.039Z,5.90
2022-11-20T05:47:26.439Z,5.80
2022-11-20T05:49:53.549Z,5.57
2022-11-20T05:52:20.584Z,5.70
2022-11-20T05:54:47.724Z,5.37
2022-11-20T05:57:14.778Z,6.40
2022-11-20T05:59:41.859Z,6.30
2022-11-20T06:02:08.922Z,6.30
2022-11-20T06:04:36.021Z,5.30
2022-11-20T06:07:03.321Z,5.77
2022-11-20T06:09:30.689Z,5.40
2022-11-20T06:11:57.782Z,5.90
2022-11-20T06:14:24.829Z,6.03
2022-11-20T06:16:51.888Z,6.43
2022-11-20T06:19:19.026Z,5.83
2022-11-20T06:21:46.229Z,6.47
2022-11-20T06:24:13.431Z,6.10
2022-11-20T06:26:40.561Z,5.30
2022-11-20T06:29:07.604Z,6.37
2022-11-20T06:31:38.407Z,6.10
2022-11-20T06:34:07.095Z,5.50
2022-11-20T06:36:34.537Z,5.67
2022-11-20T06:39:02.059Z,5.77
2022-11-20T06:41:29.160Z,5.70
2022-11-20T06:43:56.233Z,5.87
2022-11-20T06:46:23.347Z,5.87
2022-11-20T06:48:51.264Z,6.33
2022-11-20T06:51:18.343Z,5.40
2022-11-20T06:53:45.376Z,6.00
2022-11-20T06:56:12.449Z,5.20
2022-11-20T06:58:39.529Z,5.70
2022-11-20T07:01:08.256Z,6.43
2022-11-20T07:03:35.435Z,6.23
2022-11-20T07:06:03.052Z,5.90
2022-11-20T07:08:30.272Z,5.93
2022-11-20T07:11:01.300Z,6.30
2022-11-20T07:13:28.830Z,5.57
2022-11-20T07:15:56.389Z,6.77
2022-11-20T07:18:23.530Z,7.33
2022-11-20T07:20:50.598Z,5.73
2022-11-20T07:23:17.697Z,5.20
2022-11-20T07:25:44.718Z,6.23
2022-11-20T07:28:11.815Z,5.80
2022-11-20T07:30:38.984Z,6.20
2022-11-20T07:33:06.134Z,5.87
2022-11-20T07:35:33.758Z,6.40
2022-11-20T07:38:00.824Z,5.97
2022-11-20T07:40:28.082Z,6.67
2022-11-20T07:42:57.179Z,6.20
2022-11-20T07:45:25.202Z,5.57
2022-11-20T07:47:52.614Z,6.40
2022-11-20T07:50:20.371Z,6.03
2022-11-20T07:52:47.420Z,5.93
2022-11-20T07:55:14.706Z,6.60
2022-11-20T07:57:41.851Z,6.17
2022-11-20T08:00:10.142Z,6.43
2022-11-20T08:02:40.987Z,6.70
2022-11-20T08:05:08.930Z,6.20
2022-11-20T08:07:39.776Z,6.43
2022-11-20T08:10:07.522Z,7.20
2022-11-20T08:12:53.346Z,6.53
2022-11-20T08:15:20.411Z,6.50
2022-11-20T08:18:08.358Z,5.90
2022-11-20T08:20:35.519Z,6.50
2022-11-20T08:23:03.532Z,6.87
2022-11-20T08:25:31.229Z,6.37
2022-11-20T08:28:00.365Z,7.53
2022-11-20T08:30:28.372Z,6.73
2022-11-20T08:32:55.761Z,6.50
2022-11-20T08:35:23.509Z,7.00
2022-11-20T08:37:50.568Z,7.37
2022-11-20T08:40:19.803Z,7.13
2022-11-20T08:42:50.944Z,6.80
2022-11-20T08:45:18.640Z,6.60
2022-11-20T08:47:45.951Z,7.20
2022-11-20T08:50:14.008Z,7.33
2022-11-20T08:52:41.199Z,7.00
2022-11-20T08:55:08.565Z,7.13
2022-11-20T08:57:36.487Z,8.10
2022-11-20T09:00:06.636Z,7.40
2022-11-20T09:02:34.857Z,8.03
2022-11-20T09:05:03.302Z,7.60
2022-11-20T09:07:33.741Z,7.93
2022-11-20T09:10:22.532Z,7.90
2022-11-20T09:12:50.327Z,8.00
2022-11-20T09:15:17.400Z,8.10
2022-11-20T09:17:44.441Z,8.40
2022-11-20T09:20:11.657Z,7.37
2022-11-20T09:22:41.655Z,7.53
2022-11-20T09:25:08.938Z,6.90
2022-11-20T09:27:36.622Z,7.50
2022-11-20T09:30:04.218Z,7.27
2022-11-20T09:32:31.276Z,6.13
2022-11-20T09:34:58.342Z,7.87
2022-11-20T09:37:25.487Z,6.70
2022-11-20T09:39:52.548Z,6.57
2022-11-20T09:42:39.617Z,6.20
2022-11-20T09:45:23.263Z,6.03
2022-11-20T09:47:50.314Z,7.07
2022-11-20T09:50:33.924Z,6.40
2022-11-20T09:53:03.976Z,6.20
2022-11-20T09:55:31.670Z,6.37
2022-11-20T09:57:59.616Z,5.30
2022-11-20T10:00:27.811Z,6.63
2022-11-20T10:02:57.452Z,5.97
2022-11-20T10:05:29.989Z,5.07
2022-11-20T10:08:10.686Z,5.80
2022-11-20T10:11:00.670Z,5.53
2022-11-20T10:13:30.476Z,7.03
2022-11-20T10:16:10.683Z,6.20
2022-11-20T10:18:44.399Z,6.73
2022-11-20T10:21:11.702Z,6.77
2022-11-20T10:23:50.667Z,5.77
2022-11-20T10:26:27.673Z,5.07
2022-11-20T10:29:12.846Z,4.87
2022-11-20T10:31:41.891Z,5.20
2022-11-20T10:34:22.595Z,5.17
2022-11-20T10:36:57.720Z,5.73
2022-11-20T10:39:48.047Z,4.73
2022-11-20T10:42:18.555Z,5.37
2022-11-20T10:45:05.787Z,4.73
2022-11-20T10:47:33.936Z,5.07
2022-11-20T10:50:04.672Z,5.00
2022-11-20T10:52:41.532Z,4.27
2022-11-20T10:55:19.813Z,4.70
2022-11-20T10:57:56.218Z,5.00
2022-11-20T11:00:23.346Z,5.13
2022-11-20T11:02:51.687Z,4.97
2022-11-20T11:05:29.467Z,4.53
2022-11-20T11:07:57.344Z,5.00
2022-11-20T11:10:39.528Z,4.90
2022-11-20T11:13:06.577Z,4.73
2022-11-20T11:15:40.835Z,4.27
2022-11-20T11:18:11.676Z,5.07
2022-11-20T11:20:39.094Z,4.93
2022-11-20T11:23:06.145Z,4.70
2022-11-20T11:25:37.188Z,5.10
2022-11-20T11:28:21.913Z,4.60
2022-11-20T11:30:52.229Z,4.90
2022-11-20T11:33:26.603Z,4.30
2022-11-20T11:35:53.726Z,4.53
2022-11-20T11:38:25.017Z,4.57
2022-11-20T11:40:55.249Z,4.03
2022-11-20T11:43:42.958Z,4.07
2022-11-20T11:46:22.497Z,3.57
2022-11-20T11:48:56.848Z,3.40
2022-11-20T11:51:23.916Z,3.53
2022-11-20T11:53:51.630Z,3.80
2022-11-20T11:56:18.749Z,3.70
2022-11-20T11:58:47.876Z,3.40
2022-11-20T12:01:34.332Z,3.70
2022-11-20T12:04:06.026Z,3.53
2022-11-20T12:06:34.664Z,3.77
2022-11-20T12:09:04.672Z,3.60
2022-11-20T12:11:31.704Z,3.77
2022-11-20T12:14:10.796Z,3.53
2022-11-20T12:16:39.414Z,3.37
2022-11-20T12:19:12.126Z,3.80
2022-11-20T12:21:39.162Z,3.40
2022-11-20T12:24:06.236Z,3.93
2022-11-20T12:26:45.195Z,3.80
2022-11-20T12:29:20.369Z,3.90
2022-11-20T12:34:20.605Z,3.43
2022-11-20T12:36:50.390Z,2.93
2022-11-20T12:39:17.432Z,3.83
2022-11-20T12:42:06.233Z,3.47
2022-11-20T12:45:10.296Z,3.77
2022-11-20T12:48:05.041Z,3.37
2022-11-20T12:51:00.115Z,3.17
2022-11-20T12:53:31.330Z,3.57
2022-11-20T12:56:17.029Z,3.50
2022-11-20T12:59:04.322Z,3.20
2022-11-20T13:01:40.741Z,3.27
2022-11-20T13:04:26.415Z,3.43
2022-11-20T13:06:53.865Z,3.07
2022-11-20T13:09:24.968Z,3.30
2022-11-20T13:11:52.050Z,3.40
2022-11-20T13:14:41.606Z,3.10
2022-11-20T13:17:13.365Z,3.23
2022-11-20T13:19:40.877Z,3.07
2022-11-20T13:22:09.538Z,3.17
2022-11-20T13:24:36.613Z,3.43
2022-11-20T13:27:03.685Z,3.60
2022-11-20T13:29:31.230Z,3.33
2022-11-20T13:32:13.653Z,2.93
2022-11-20T13:34:40.865Z,2.80
2022-11-20T13:37:25.942Z,2.90
2022-11-20T13:39:53.041Z,2.93
2022-11-20T13:42:20.062Z,3.17
2022-11-20T13:44:52.940Z,2.93
2022-11-20T13:47:27.614Z,2.73
2022-11-20T13:49:55.670Z,2.67
2022-11-20T13:52:36.740Z,3.20
2022-11-20T13:55:03.799Z,2.63
2022-11-20T13:57:39.716Z,2.83
2022-11-20T14:00:12.652Z,2.53
2022-11-20T14:02:40.262Z,3.37
2022-11-20T14:05:07.472Z,5.13
2022-11-20T14:07:38.843Z,2.93
2022-11-20T14:10:06.632Z,3.00
2022-11-20T14:12:35.339Z,3.23
2022-11-20T14:15:02.403Z,3.10
2022-11-20T14:17:35.865Z,3.00
2022-11-20T14:20:05.235Z,3.30
2022-11-20T14:22:32.417Z,3.50
2022-11-20T14:25:05.252Z,3.70
2022-11-20T14:27:35.015Z,3.30
2022-11-20T14:30:03.990Z,3.77
2022-11-20T14:32:32.264Z,3.67
2022-11-20T14:35:02.784Z,3.73
2022-11-20T14:37:32.369Z,4.27
2022-11-20T14:39:59.864Z,4.40
2022-11-20T14:42:27.730Z,4.27
2022-11-20T14:44:56.684Z,3.87
2022-11-20T14:47:25.118Z,4.10
2022-11-20T14:49:53.302Z,4.47
2022-11-20T14:52:24.629Z,3.90
2022-11-20T14:54:52.965Z,3.77
2022-11-20T14:57:23.154Z,4.40
2022-11-20T14:59:50.222Z,3.70
2022-11-20T15:02:17.575Z,4.30
2022-11-20T15:04:47.669Z,4.43
2022-11-20T15:07:24.931Z,4.77
2022-11-20T15:10:11.247Z,4.53
2022-11-20T15:12:57.869Z,4.40
2022-11-20T15:15:36.830Z,4.10
2022-11-20T15:18:05.035Z,4.50
2022-11-20T15:20:35.553Z,4.63
2022-11-20T15:23:02.649Z,4.17
2022-11-20T15:25:29.824Z,4.13
2022-11-20T15:27:57.949Z,4.83
2022-11-20T15:30:25.156Z,3.90
2022-11-20T15:32:52.424Z,3.90
2022-11-20T15:35:19.545Z,4.07
2022-11-20T15:37:46.619Z,4.77
2022-11-20T15:40:14.046Z,4.27
2022-11-20T15:43:01.099Z,4.57
2022-11-20T15:45:30.188Z,5.40
2022-11-20T15:47:57.238Z,7.23
2022-11-20T15:50:27.450Z,7.20
2022-11-20T15:52:54.496Z,5.63
2022-11-20T15:55:21.561Z,5.40
2022-11-20T15:57:48.722Z,4.90
2022-11-20T16:00:19.288Z,6.90
2022-11-20T16:02:50.479Z,6.30
2022-11-20T16:05:18.585Z,6.37
2022-11-20T16:07:45.857Z,6.97
2022-11-20T16:10:13.241Z,6.63
2022-11-20T16:12:58.940Z,5.50
2022-11-20T16:15:44.660Z,5.10
2022-11-20T16:18:12.448Z,4.90
2022-11-20T16:20:39.907Z,4.97
2022-11-20T16:23:07.550Z,6.27
2022-11-20T16:25:34.689Z,7.20
2022-11-20T16:28:01.797Z,6.33
2022-11-20T16:30:28.844Z,5.53
2022-11-20T16:32:55.916Z,5.67
2022-11-20T16:35:23.204Z,5.13
2022-11-20T16:37:50.293Z,5.40
2022-11-20T16:40:17.384Z,4.93
2022-11-20T16:42:44.464Z,5.43
2022-11-20T16:45:11.762Z,5.50
2022-11-20T16:47:38.892Z,4.63
2022-11-20T16:50:06.940Z,5.97
2022-11-20T16:52:34.020Z,5.97
2022-11-20T16:55:01.098Z,6.07
2022-11-20T16:57:32.893Z,5.87
2022-11-20T17:00:02.554Z,5.83
2022-11-20T17:02:29.895Z,5.73
2022-11-20T17:04:56.929Z,5.07
2022-11-20T17:07:24.056Z,6.23
2022-11-20T17:09:51.180Z,5.73
2022-11-20T17:12:18.285Z,5.50
2022-11-20T17:14:45.339Z,5.07
2022-11-20T17:17:12.445Z,5.97
2022-11-20T17:19:39.522Z,5.27
2022-11-20T17:22:06.557Z,5.53
2022-11-20T17:24:34.228Z,5.33
2022-11-20T17:27:01.550Z,5.20
2022-11-20T17:29:28.683Z,5.00
2022-11-20T17:31:55.832Z,5.00
2022-11-20T17:34:23.196Z,4.97
2022-11-20T17:36:50.509Z,4.57
2022-11-20T17:39:18.330Z,5.70
2022-11-20T17:41:45.419Z,7.77
2022-11-20T17:44:13.404Z,6.13
2022-11-20T17:46:40.700Z,6.00
2022-11-20T17:49:07.823Z,6.23
2022-11-20T17:51:35.498Z,6.30
2022-11-20T17:54:05.541Z,5.00
2022-11-20T17:56:51.854Z,4.10
2022-11-20T17:59:19.076Z,4.70
2022-11-20T18:01:46.603Z,5.07
2022-11-20T18:04:14.235Z,4.07
2022-11-20T18:06:41.305Z,4.57
2022-11-20T18:09:08.626Z,4.77
2022-11-20T18:11:36.824Z,4.90
2022-11-20T18:14:24.416Z,4.13
2022-11-20T18:16:53.195Z,6.00
2022-11-20T18:19:21.790Z,4.70
2022-11-20T18:21:49.005Z,4.90
2022-11-20T18:24:16.101Z,5.70
2022-11-20T18:26:44.746Z,6.27
2022-11-20T18:29:12.824Z,4.80
2022-11-20T18:31:40.349Z,5.63
2022-11-20T18:34:11.452Z,4.90
2022-11-20T18:36:38.962Z,5.47
2022-11-20T18:39:06.381Z,5.77
2022-11-20T18:41:52.333Z,5.53
2022-11-20T18:44:39.503Z,4.57
2022-11-20T18:47:14.260Z,4.60
2022-11-20T18:49:42.768Z,5.30
2022-11-20T18:52:09.870Z,4.33
2022-11-20T18:54:37.183Z,4.87
2022-11-20T18:57:05.198Z,5.60
2022-11-20T18:59:32.438Z,5.83
2022-11-20T19:01:59.743Z,4.97
2022-11-20T19:04:27.617Z,5.80
2022-11-20T19:06:56.242Z,5.50
2022-11-20T19:09:24.221Z,6.20
2022-11-20T19:11:51.699Z,5.67
2022-11-20T19:14:18.953Z,4.87
2022-11-20T19:16:46.226Z,5.47
2022-11-20T19:19:13.488Z,4.33
2022-11-20T19:21:42.132Z,4.63
2022-11-20T19:24:09.526Z,4.87
2022-11-20T19:26:37.825Z,5.60
2022-11-20T19:29:05.555Z,5.53
2022-11-20T19:31:32.687Z,5.47
2022-11-20T19:34:00.781Z,5.80
2022-11-20T19:36:29.335Z,4.70
2022-11-20T19:38:56.663Z,4.80
2022-11-20T19:41:31.418Z,5.60
2022-11-20T19:44:02.520Z,5.63
2022-11-20T19:46:30.623Z,5.53
2022-11-20T19:48:58.045Z,5.60
2022-11-20T19:51:26.347Z,5.63
2022-11-20T19:53:53.900Z,5.63
2022-11-20T19:56:21.592Z,6.63
2022-11-20T19:58:48.654Z,6.20
2022-11-20T20:01:17.630Z,6.77
2022-11-20T20:03:45.059Z,7.03
2022-11-20T20:06:14.076Z,6.03
2022-11-20T20:08:41.619Z,7.53
2022-11-20T20:11:12.436Z,7.37
2022-11-20T20:13:39.645Z,8.40
2022-11-20T20:16:07.735Z,8.00
2022-11-20T20:18:34.875Z,6.90
2022-11-20T20:21:06.155Z,11.33
2022-11-20T20:23:33.445Z,7.27
2022-11-20T20:26:00.602Z,6.80
2022-11-20T20:28:28.246Z,7.37
2022-11-20T20:30:55.688Z,6.87
2022-11-20T20:33:23.074Z,6.63
2022-11-20T20:35:50.266Z,7.17
2022-11-20T20:38:17.335Z,7.27
2022-11-20T20:40:49.502Z,6.93
2022-11-20T20:43:17.024Z,6.37
2022-11-20T20:45:50.847Z,7.40
2022-11-20T20:48:21.756Z,7.07
2022-11-20T20:50:58.514Z,7.30
2022-11-20T20:53:25.704Z,7.33
2022-11-20T20:55:59.345Z,6.40
2022-11-20T20:58:27.318Z,6.83
2022-11-20T21:00:54.397Z,6.63
2022-11-20T21:03:21.463Z,7.57
2022-11-20T21:05:55.703Z,7.80
2022-11-20T21:08:22.844Z,7.63
2022-11-20T21:10:50.222Z,7.33
2022-11-20T21:13:17.299Z,7.87
2022-11-20T21:15:46.898Z,8.30
2022-11-20T21:18:13.944Z,10.07
2022-11-20T21:20:59.587Z,9.17
2022-11-20T21:23:26.688Z,8.87
2022-11-20T21:25:53.751Z,7.53
2022-11-20T21:28:20.848Z,7.00
2022-11-20T21:30:48.129Z,7.20
2022-11-20T21:33:15.459Z,7.03
2022-11-20T21:35:42.534Z,7.33
2022-11-20T21:38:09.695Z,7.40
2022-11-20T21:40:36.777Z,6.53
2022-11-20T21:43:03.803Z,6.63
2022-11-20T21:45:30.908Z,6.33
2022-11-20T21:47:57.959Z,6.10
2022-11-20T21:50:25.048Z,7.40
2022-11-20T21:52:52.100Z,7.83
2022-11-20T21:55:19.200Z,9.23
2022-11-20T21:57:46.254Z,7.90
2022-11-20T22:00:13.651Z,6.20
2022-11-20T22:02:40.701Z,6.77
2022-11-20T22:05:08.687Z,7.50
2022-11-20T22:07:35.980Z,7.87
2022-11-20T22:10:03.043Z,7.10
2022-11-20T22:12:30.174Z,6.83
2022-11-20T22:14:57.228Z,7.23
2022-11-20T22:17:44.237Z,6.47
2022-11-20T22:20:11.414Z,6.83
2022-11-20T22:22:40.793Z,7.13
2022-11-20T22:25:08.037Z,7.17
2022-11-20T22:27:35.091Z,6.90
2022-11-20T22:30:02.257Z,6.93
2022-11-20T22:32:29.317Z,7.60
2022-11-20T22:34:56.381Z,6.50
2022-11-20T22:37:23.426Z,6.50
2022-11-20T22:39:50.514Z,7.23
2022-11-20T22:42:17.604Z,7.60
2022-11-20T22:44:44.655Z,7.30
2022-11-20T22:47:11.764Z,8.47
2022-11-20T22:49:38.850Z,7.97
2022-11-20T22:52:05.981Z,7.10
2022-11-20T22:54:33.036Z,8.30
2022-11-20T22:57:00.102Z,7.10
2022-11-20T22:59:27.177Z,7.60
2022-11-20T23:01:54.234Z,7.37
2022-11-20T23:04:21.335Z,8.07
2022-11-20T23:06:48.426Z,7.30
2022-11-20T23:09:15.678Z,9.97
2022-11-20T23:11:42.737Z,9.07
2022-11-20T23:14:16.591Z,8.47
2022-11-20T23:16:43.659Z,8.93
2022-11-20T23:19:12.381Z,8.23
2022-11-20T23:21:40.565Z,7.37
2022-11-20T23:24:08.166Z,7.00
2022-11-20T23:26:36.806Z,7.50
2022-11-20T23:29:04.071Z,8.27
2022-11-20T23:31:31.837Z,8.77
2022-11-20T23:33:59.590Z,8.00
2022-11-20T23:36:26.970Z,8.43
2022-11-20T23:38:54.084Z,8.93
2022-11-20T23:41:21.210Z,8.23
2022-11-20T23:43:48.266Z,8.87
2022-11-20T23:46:16.987Z,8.47
2022-11-20T23:48:45.073Z,8.90
2022-11-20T23:51:12.621Z,8.13
2022-11-20T23:53:39.964Z,8.27
2022-11-20T23:56:07.261Z,7.97
2022-11-20T23:58:35.761Z,7.47
